Time;durP1;ratioP1;P1;durP2;ratioP2;P2;SDS_P1;SDS_P2;PMS_P1;PMS_P2;Temp;Humidity;BMP_temperature;BMP_pressure;BME280_temperature;BME280_humidity;BME280_pressure;Samples;Min_cycle;Max_cycle;Signal;HPM_P1;HPM_P2
2023/08/23 00:00:45;;;;;;;5.05;4.07;;;24.10;99.90;;;;;;5044802;28;20029;-74
2023/08/23 00:03:11;;;;;;;9.90;4.50;;;24.10;99.90;;;;;;5047651;28;20422;-74
2023/08/23 00:05:36;;;;;;;7.55;3.97;;;24.10;99.90;;;;;;5053267;28;20053;-75
2023/08/23 00:08:02;;;;;;;5.38;3.83;;;24.10;99.90;;;;;;5052893;28;20391;-75
2023/08/23 00:10:28;;;;;;;6.93;4.15;;;24.10;99.90;;;;;;5033760;28;20095;-74
2023/08/23 00:12:56;;;;;;;9.35;4.57;;;24.10;99.90;;;;;;5019144;28;20025;-73
2023/08/23 00:15:22;;;;;;;10.00;4.47;;;24.10;99.90;;;;;;5049696;28;20034;-73
2023/08/23 00:17:47;;;;;;;7.18;4.10;;;24.00;99.90;;;;;;5047808;28;20029;-75
2023/08/23 00:20:13;;;;;;;5.90;3.90;;;24.00;99.90;;;;;;5035256;28;20756;-74
2023/08/23 00:22:38;;;;;;;6.20;3.67;;;24.00;99.90;;;;;;5053454;28;20029;-75
2023/08/23 00:25:04;;;;;;;5.80;3.88;;;23.90;99.90;;;;;;5053273;28;20486;-75
2023/08/23 00:27:30;;;;;;;6.40;4.40;;;23.90;99.90;;;;;;5053355;28;20032;-74
2023/08/23 00:29:55;;;;;;;6.85;4.22;;;23.90;99.90;;;;;;5048613;28;20020;-75
2023/08/23 00:32:21;;;;;;;5.10;3.45;;;23.80;99.90;;;;;;5022871;28;20053;-74
2023/08/23 00:34:50;;;;;;;4.32;3.65;;;23.80;99.90;;;;;;5031871;28;20464;-74
2023/08/23 00:37:15;;;;;;;5.75;3.38;;;23.80;99.90;;;;;;5052474;28;20067;-74
2023/08/23 00:39:44;;;;;;;5.03;2.75;;;23.80;99.90;;;;;;5049089;28;20037;-74
2023/08/23 00:42:10;;;;;;;6.22;3.83;;;23.80;99.90;;;;;;5053285;28;20086;-74
2023/08/23 00:44:35;;;;;;;4.28;3.28;;;23.70;99.90;;;;;;5052820;28;20025;-74
2023/08/23 00:47:01;;;;;;;7.25;4.00;;;23.70;99.90;;;;;;5039708;28;20056;-74
2023/08/23 00:49:33;;;;;;;10.07;4.10;;;23.60;99.90;;;;;;5034804;28;20025;-74
2023/08/23 00:52:04;;;;;;;7.15;3.88;;;23.60;99.90;;;;;;5034933;28;20175;-74
2023/08/23 00:54:33;;;;;;;5.45;3.75;;;23.60;99.90;;;;;;5052887;28;20028;-74
2023/08/23 00:57:01;;;;;;;6.22;3.28;;;23.50;99.90;;;;;;5052872;28;20029;-74
2023/08/23 00:59:29;;;;;;;7.45;3.40;;;23.50;99.90;;;;;;5052637;28;20359;-74
2023/08/23 01:01:55;;;;;;;10.32;3.67;;;23.50;99.90;;;;;;5048810;28;20098;-74
2023/08/23 01:04:27;;;;;;;5.65;3.65;;;23.40;99.90;;;;;;5032507;28;20037;-73
2023/08/23 01:07:12;;;;;;;6.18;3.90;;;23.40;99.90;;;;;;5044975;28;20523;-74
2023/08/23 01:10:04;;;;;;;6.53;3.85;;;23.40;99.90;;;;;;5052433;28;20029;-73
2023/08/23 01:12:38;;;;;;;4.82;3.53;;;23.30;99.90;;;;;;5052483;28;20048;-74
2023/08/23 01:15:07;;;;;;;5.85;3.75;;;23.30;99.90;;;;;;5034483;28;20075;-74
2023/08/23 01:17:36;;;;;;;4.32;3.85;;;23.30;99.90;;;;;;5051553;28;20068;-76
2023/08/23 01:20:03;;;;;;;8.38;3.50;;;23.30;99.90;;;;;;5046234;28;20024;-74
2023/08/23 01:22:32;;;;;;;5.32;3.47;;;23.30;99.90;;;;;;5050897;28;20024;-74
2023/08/23 01:25:07;;;;;;;7.25;4.38;;;23.20;99.90;;;;;;5050423;28;20021;-74
2023/08/23 01:27:36;;;;;;;9.57;4.00;;;23.20;99.90;;;;;;5041502;28;20025;-74
2023/08/23 01:30:05;;;;;;;6.88;3.85;;;23.20;99.90;;;;;;5058821;23;20129;-76
2023/08/23 01:32:48;;;;;;;5.43;3.55;;;23.10;99.90;;;;;;4991402;28;20619;-77
2023/08/23 01:35:32;;;;;;;5.57;3.43;;;23.10;99.90;;;;;;5006998;28;20045;-76
2023/08/23 01:38:00;;;;;;;6.47;3.80;;;23.00;99.90;;;;;;4990696;28;20037;-77
2023/08/23 01:40:26;;;;;;;5.32;3.42;;;22.90;99.90;;;;;;5010407;28;20125;-77
2023/08/23 01:42:53;;;;;;;5.45;3.95;;;22.90;99.90;;;;;;5012256;28;20030;-76
2023/08/23 01:45:19;;;;;;;8.52;4.05;;;22.90;99.90;;;;;;5010437;28;20502;-76
2023/08/23 01:47:44;;;;;;;8.18;3.95;;;22.90;99.90;;;;;;5010635;28;20014;-76
2023/08/23 01:50:10;;;;;;;6.53;3.80;;;22.90;99.90;;;;;;4990139;28;20122;-77
2023/08/23 01:52:36;;;;;;;6.28;3.60;;;22.90;99.90;;;;;;5008803;28;20053;-77
2023/08/23 01:55:04;;;;;;;9.73;4.05;;;22.90;99.90;;;;;;4990508;28;20393;-77
2023/08/23 01:57:30;;;;;;;6.35;3.83;;;22.80;99.90;;;;;;5007380;28;20396;-77
2023/08/23 01:59:56;;;;;;;6.30;3.35;;;22.80;99.90;;;;;;5005523;28;20029;-76
2023/08/23 02:02:24;;;;;;;7.80;3.55;;;22.80;99.90;;;;;;4990020;28;20490;-77
2023/08/23 02:04:50;;;;;;;6.22;3.88;;;22.80;99.90;;;;;;5006704;28;20056;-76
2023/08/23 02:07:20;;;;;;;5.68;3.22;;;22.70;99.90;;;;;;4992911;28;20046;-76
2023/08/23 02:09:45;;;;;;;8.13;3.95;;;22.80;99.90;;;;;;5008723;28;20431;-77
2023/08/23 02:12:11;;;;;;;7.28;3.40;;;22.80;99.90;;;;;;4989546;28;20022;-77
2023/08/23 02:14:37;;;;;;;5.78;3.60;;;22.80;99.90;;;;;;4990172;28;20101;-77
2023/08/23 02:17:05;;;;;;;11.55;3.83;;;22.70;99.90;;;;;;5008091;28;20476;-77
2023/08/23 02:19:31;;;;;;;4.80;3.50;;;22.70;99.90;;;;;;4990257;28;20125;-77
2023/08/23 02:21:56;;;;;;;6.25;3.30;;;22.70;99.90;;;;;;5007411;28;20065;-77
2023/08/23 02:24:22;;;;;;;5.50;3.35;;;22.70;99.90;;;;;;5008157;28;20026;-76
2023/08/23 02:26:48;;;;;;;6.22;3.90;;;22.70;99.90;;;;;;5007952;28;20049;-76
2023/08/23 02:29:13;;;;;;;7.18;3.90;;;22.60;99.90;;;;;;5005950;28;20026;-76
2023/08/23 02:31:39;;;;;;;5.72;3.90;;;22.60;99.90;;;;;;4986061;28;20032;-76
2023/08/23 02:34:04;;;;;;;8.63;3.85;;;22.60;99.90;;;;;;5008349;28;20033;-76
2023/08/23 02:36:30;;;;;;;7.20;4.22;;;22.50;99.90;;;;;;5011551;28;21493;-77
2023/08/23 02:38:56;;;;;;;9.73;4.30;;;22.50;99.90;;;;;;4993979;28;20577;-76
2023/08/23 02:41:22;;;;;;;5.45;4.10;;;22.50;99.90;;;;;;4991378;28;20049;-77
2023/08/23 02:43:47;;;;;;;7.18;3.80;;;22.50;99.90;;;;;;5006884;28;20455;-76
2023/08/23 02:46:15;;;;;;;9.02;4.45;;;22.50;99.90;;;;;;5007615;28;20028;-76
2023/08/23 02:48:50;;;;;;;7.70;3.88;;;22.50;99.90;;;;;;5007472;28;20037;-76
2023/08/23 02:51:19;;;;;;;8.80;4.25;;;22.50;99.90;;;;;;4989686;28;20025;-76
2023/08/23 02:53:44;;;;;;;10.88;4.65;;;22.50;99.90;;;;;;4991502;28;20033;-77
2023/08/23 02:56:10;;;;;;;6.50;4.35;;;22.40;99.90;;;;;;5007800;28;20026;-76
2023/08/23 02:58:35;;;;;;;6.10;4.03;;;22.50;99.90;;;;;;5007064;28;20030;-76
2023/08/23 03:01:02;;;;;;;6.50;3.22;;;22.40;99.90;;;;;;4989979;28;20088;-76
2023/08/23 03:03:28;;;;;;;4.85;3.50;;;22.40;99.90;;;;;;4992402;28;20045;-76
2023/08/23 03:05:56;;;;;;;6.07;3.55;;;22.30;99.90;;;;;;4987561;28;20030;-76
2023/08/23 03:08:22;;;;;;;4.38;3.30;;;22.30;99.90;;;;;;5012029;28;20053;-77
2023/08/23 03:11:10;;;;;;;8.55;4.07;;;22.30;99.90;;;;;;5011075;28;20021;-77
2023/08/23 03:13:44;;;;;;;5.38;3.85;;;22.30;99.90;;;;;;4989695;28;20026;-77
2023/08/23 03:16:10;;;;;;;6.60;3.90;;;22.20;99.90;;;;;;5008642;28;20113;-76
2023/08/23 03:18:36;;;;;;;7.35;3.80;;;22.20;99.90;;;;;;4988270;28;20119;-76
2023/08/23 03:21:01;;;;;;;8.23;3.97;;;22.20;99.90;;;;;;4990578;28;20541;-77
2023/08/23 03:23:27;;;;;;;7.38;3.92;;;22.20;99.90;;;;;;5011624;28;20492;-76
2023/08/23 03:26:05;;;;;;;7.65;4.03;;;22.10;99.90;;;;;;5009744;28;20038;-76
2023/08/23 03:28:31;;;;;;;7.32;4.13;;;22.10;99.90;;;;;;5004161;28;20486;-76
2023/08/23 03:31:03;;;;;;;5.88;3.60;;;22.10;99.90;;;;;;5007982;28;20121;-76
2023/08/23 03:33:29;;;;;;;4.67;3.50;;;22.10;99.90;;;;;;4993211;28;20041;-77
2023/08/23 03:35:58;;;;;;;6.50;3.65;;;22.10;99.90;;;;;;5007280;28;20633;-77
2023/08/23 03:38:24;;;;;;;7.00;3.65;;;22.00;99.90;;;;;;5007745;28;20037;-77
2023/08/23 03:40:51;;;;;;;5.72;3.95;;;22.00;99.90;;;;;;5009779;28;20040;-77
2023/08/23 03:43:17;;;;;;;8.05;3.80;;;22.00;99.90;;;;;;5009284;28;20087;-76
2023/08/23 03:45:47;;;;;;;4.85;3.78;;;21.90;99.90;;;;;;5007348;28;20030;-77
2023/08/23 03:48:13;;;;;;;6.18;3.55;;;21.90;99.90;;;;;;5009577;28;20022;-76
2023/08/23 03:50:39;;;;;;;8.43;4.05;;;21.90;99.90;;;;;;5007229;28;20986;-76
2023/08/23 03:53:04;;;;;;;6.90;3.67;;;21.90;99.90;;;;;;5006714;28;20480;-77
2023/08/23 03:55:30;;;;;;;7.18;3.78;;;21.80;99.90;;;;;;5011042;28;20022;-76
2023/08/23 03:57:58;;;;;;;6.88;3.88;;;21.80;99.90;;;;;;5009622;28;20034;-76
2023/08/23 04:00:24;;;;;;;6.30;4.22;;;21.80;99.90;;;;;;5005828;28;20087;-76
2023/08/23 04:02:49;;;;;;;5.43;3.95;;;21.80;99.90;;;;;;5008683;28;20038;-76
2023/08/23 04:05:15;;;;;;;7.78;4.43;;;21.80;99.90;;;;;;4993226;28;20048;-76
2023/08/23 04:07:41;;;;;;;7.47;4.03;;;21.80;99.90;;;;;;5007113;28;20473;-76
2023/08/23 04:10:07;;;;;;;7.13;3.65;;;21.80;99.90;;;;;;5005819;28;20014;-76
2023/08/23 04:12:33;;;;;;;8.13;3.88;;;21.80;99.90;;;;;;5005401;28;20029;-76
2023/08/23 04:14:58;;;;;;;6.25;4.13;;;21.80;99.90;;;;;;4989974;28;20026;-76
2023/08/23 04:17:24;;;;;;;3.97;3.42;;;21.80;99.90;;;;;;5009163;28;20029;-76
2023/08/23 04:19:50;;;;;;;5.75;3.67;;;21.80;99.90;;;;;;5004255;28;20033;-76
2023/08/23 04:22:15;;;;;;;4.97;3.58;;;21.80;99.90;;;;;;5007179;28;20069;-76
2023/08/23 04:24:41;;;;;;;4.88;3.35;;;21.70;99.90;;;;;;4985957;28;22129;-76
2023/08/23 04:27:10;;;;;;;6.50;4.25;;;21.70;99.90;;;;;;4988431;28;20025;-76
2023/08/23 04:29:38;;;;;;;9.48;4.03;;;21.70;99.90;;;;;;5009137;28;20081;-76
2023/08/23 04:32:10;;;;;;;9.63;3.53;;;21.60;99.90;;;;;;5008688;28;20076;-76
2023/08/23 04:34:38;;;;;;;5.97;3.72;;;21.60;99.90;;;;;;5007231;28;20030;-76
2023/08/23 04:37:05;;;;;;;7.28;4.35;;;21.70;99.90;;;;;;5009977;28;20056;-76
2023/08/23 04:39:31;;;;;;;8.20;3.85;;;21.60;99.90;;;;;;5010626;28;20164;-76
2023/08/23 04:41:56;;;;;;;8.13;4.03;;;21.60;99.90;;;;;;5009183;28;20152;-76
2023/08/23 04:44:29;;;;;;;6.47;3.95;;;21.60;99.90;;;;;;4991072;28;20029;-76
2023/08/23 04:46:54;;;;;;;6.57;3.75;;;21.60;99.90;;;;;;4991864;28;20049;-76
2023/08/23 04:49:26;;;;;;;11.32;4.40;;;21.60;99.90;;;;;;5007458;28;20484;-76
2023/08/23 04:51:52;;;;;;;6.82;3.90;;;21.60;99.90;;;;;;4990604;28;20417;-76
2023/08/23 04:54:17;;;;;;;4.72;3.50;;;21.60;99.90;;;;;;4994778;28;20034;-75
2023/08/23 04:56:43;;;;;;;8.55;4.30;;;21.60;99.90;;;;;;5004273;28;20085;-76
2023/08/23 04:59:08;;;;;;;5.30;3.38;;;21.60;99.90;;;;;;5006262;28;20045;-76
2023/08/23 05:01:40;;;;;;;8.13;3.53;;;21.60;99.90;;;;;;5008558;28;20114;-77
2023/08/23 05:04:07;;;;;;;7.07;4.10;;;21.60;99.90;;;;;;5006500;28;20041;-76
2023/08/23 05:06:35;;;;;;;6.35;3.50;;;21.60;99.90;;;;;;5007813;28;20030;-77
2023/08/23 05:09:02;;;;;;;7.63;4.88;;;21.60;99.90;;;;;;4990540;28;20050;-77
2023/08/23 05:11:27;;;;;;;8.82;3.33;;;21.50;99.90;;;;;;5011756;28;20473;-77
2023/08/23 05:13:53;;;;;;;4.65;3.97;;;21.60;99.90;;;;;;5007278;28;20088;-77
2023/08/23 05:16:24;;;;;;;8.35;4.50;;;21.60;99.90;;;;;;5010292;28;20029;-77
2023/08/23 05:18:50;;;;;;;6.82;3.72;;;21.60;99.90;;;;;;4989308;28;20066;-77
2023/08/23 05:21:16;;;;;;;6.00;4.07;;;21.70;99.90;;;;;;4985230;28;20053;-77
2023/08/23 05:23:41;;;;;;;8.43;4.45;;;21.70;99.90;;;;;;4992773;28;20027;-76
2023/08/23 05:26:07;;;;;;;4.65;3.47;;;21.80;99.90;;;;;;4985132;28;20041;-76
2023/08/23 05:28:36;;;;;;;7.18;4.03;;;21.80;99.90;;;;;;5007218;28;20029;-76
2023/08/23 05:31:02;;;;;;;6.93;3.85;;;21.90;99.90;;;;;;5005454;28;20029;-76
2023/08/23 05:33:28;;;;;;;8.90;4.13;;;22.00;99.90;;;;;;5008715;28;20527;-76
2023/08/23 05:36:00;;;;;;;7.85;3.85;;;22.00;99.90;;;;;;4992023;28;20029;-77
2023/08/23 05:38:28;;;;;;;7.63;4.18;;;22.10;99.90;;;;;;4993969;28;20124;-77
2023/08/23 05:40:54;;;;;;;7.68;4.70;;;22.20;99.90;;;;;;5011357;28;20030;-76
2023/08/23 05:43:20;;;;;;;8.63;4.75;;;22.30;99.90;;;;;;5008830;28;20092;-76
2023/08/23 05:45:46;;;;;;;8.98;4.00;;;22.40;99.90;;;;;;5009052;28;20072;-77
2023/08/23 05:48:17;;;;;;;8.43;4.45;;;22.50;99.90;;;;;;5007950;28;20060;-77
2023/08/23 05:50:43;;;;;;;10.82;4.50;;;22.60;99.90;;;;;;5008123;28;20028;-77
2023/08/23 05:53:18;;;;;;;7.25;4.60;;;22.70;99.90;;;;;;5004491;28;20026;-76
2023/08/23 05:55:49;;;;;;;7.05;3.88;;;22.80;99.90;;;;;;5007807;28;20025;-77
2023/08/23 05:58:18;;;;;;;9.25;4.20;;;22.80;99.90;;;;;;4994624;28;20052;-77
2023/08/23 06:00:45;;;;;;;6.32;4.05;;;22.90;99.90;;;;;;5007306;28;20076;-77
2023/08/23 06:03:14;;;;;;;7.57;3.95;;;23.00;99.90;;;;;;5008779;28;20503;-77
2023/08/23 06:05:45;;;;;;;10.82;4.13;;;23.00;99.90;;;;;;5008180;28;20026;-76
2023/08/23 06:08:11;;;;;;;7.40;3.97;;;23.00;99.90;;;;;;5009112;28;20026;-76
2023/08/23 06:10:40;;;;;;;11.05;4.45;;;23.10;99.90;;;;;;5006412;28;20033;-75
2023/08/23 06:13:05;;;;;;;7.20;4.20;;;23.20;99.90;;;;;;5006632;28;20026;-72
2023/08/23 06:15:31;;;;;;;7.97;4.18;;;23.20;99.90;;;;;;5005422;28;20034;-73
2023/08/23 06:17:57;;;;;;;7.15;4.10;;;23.30;99.90;;;;;;5008159;28;20533;-71
2023/08/23 06:20:22;;;;;;;7.65;3.70;;;23.30;99.90;;;;;;4997587;28;20087;-71
2023/08/23 06:22:51;;;;;;;7.05;4.75;;;23.30;99.90;;;;;;5005911;28;20104;-72
2023/08/23 06:25:16;;;;;;;9.25;4.30;;;23.40;99.90;;;;;;5005690;28;20034;-71
2023/08/23 06:27:44;;;;;;;7.30;4.50;;;23.40;99.90;;;;;;4986200;28;20358;-71
2023/08/23 06:30:10;;;;;;;7.25;4.88;;;23.50;99.90;;;;;;4991326;28;20026;-71
2023/08/23 06:32:35;;;;;;;8.32;5.00;;;23.50;99.90;;;;;;5007534;28;20095;-71
2023/08/23 06:35:02;;;;;;;9.50;5.68;;;23.60;99.90;;;;;;4993477;28;20081;-72
2023/08/23 06:37:30;;;;;;;7.40;5.10;;;23.60;99.90;;;;;;5010853;28;20109;-73
2023/08/23 06:40:02;;;;;;;7.20;4.65;;;23.70;99.90;;;;;;4991548;28;20549;-76
2023/08/23 06:42:28;;;;;;;6.20;4.78;;;23.70;99.90;;;;;;5008245;28;20109;-73
2023/08/23 06:44:54;;;;;;;9.05;5.47;;;23.80;99.90;;;;;;4991034;28;20536;-74
2023/08/23 06:47:20;;;;;;;8.52;5.60;;;23.80;99.90;;;;;;4992996;28;20397;-73
2023/08/23 06:49:51;;;;;;;8.27;5.35;;;23.90;99.90;;;;;;4990557;28;20022;-73
2023/08/23 06:52:17;;;;;;;6.53;5.15;;;23.90;99.90;;;;;;4993298;28;20038;-75
2023/08/23 06:54:42;;;;;;;6.55;4.82;;;23.80;99.90;;;;;;5008411;28;20041;-73
2023/08/23 06:57:11;;;;;;;14.85;5.95;;;23.90;99.90;;;;;;5008211;28;20034;-74
2023/08/23 06:59:36;;;;;;;9.20;5.22;;;23.90;99.90;;;;;;5010780;28;20084;-77
2023/08/23 07:02:03;;;;;;;9.48;5.43;;;23.90;99.90;;;;;;5012072;28;20481;-77
2023/08/23 07:04:31;;;;;;;12.20;5.35;;;23.90;99.90;;;;;;5010862;28;20034;-77
2023/08/23 07:07:00;;;;;;;9.52;6.18;;;23.90;99.90;;;;;;5010742;28;20056;-77
2023/08/23 07:09:29;;;;;;;8.32;5.47;;;23.90;99.90;;;;;;5010574;28;20532;-77
2023/08/23 07:11:54;;;;;;;13.88;6.05;;;23.90;99.90;;;;;;4992031;28;20431;-76
2023/08/23 07:14:20;;;;;;;11.23;5.97;;;23.90;99.90;;;;;;5014295;28;20042;-76
2023/08/23 07:16:49;;;;;;;8.48;5.88;;;23.90;99.90;;;;;;4995271;28;20069;-77
2023/08/23 07:19:14;;;;;;;10.52;5.53;;;23.90;99.90;;;;;;5011791;28;20423;-77
2023/08/23 07:21:40;;;;;;;7.57;4.60;;;23.90;99.90;;;;;;5018236;28;20014;-77
2023/08/23 07:24:05;;;;;;;8.07;4.80;;;23.90;99.90;;;;;;4995796;28;20112;-77
2023/08/23 07:26:33;;;;;;;8.65;5.13;;;24.00;99.90;;;;;;5014050;28;20025;-77
2023/08/23 07:29:02;;;;;;;8.93;5.32;;;24.00;99.90;;;;;;4995251;28;20018;-78
2023/08/23 07:34:04;;;;;;;6.90;5.22;;;24.20;99.90;;;;;;4999307;28;20374;-73
2023/08/23 07:36:32;;;;;;;11.18;5.20;;;24.20;99.90;;;;;;5010131;28;20054;-73
2023/08/23 07:38:58;;;;;;;12.10;5.13;;;24.20;99.90;;;;;;4996034;28;20072;-80
2023/08/23 07:41:24;;;;;;;10.00;5.70;;;24.30;99.90;;;;;;4996615;28;20065;-78
2023/08/23 07:43:49;;;;;;;11.05;5.68;;;24.30;99.90;;;;;;5005225;28;20365;-80
2023/08/23 07:46:15;;;;;;;8.10;5.10;;;24.40;99.90;;;;;;4996458;28;20049;-80
2023/08/23 07:48:43;;;;;;;7.82;5.47;;;24.40;99.90;;;;;;5000585;28;20018;-79
2023/08/23 07:51:09;;;;;;;9.27;4.90;;;24.40;99.90;;;;;;5013690;28;20503;-80
2023/08/23 07:53:37;;;;;;;9.82;4.85;;;24.50;99.90;;;;;;5011513;28;20023;-83
2023/08/23 07:56:10;;;;;;;7.05;5.45;;;24.40;99.90;;;;;;5011703;28;20503;-79
2023/08/23 07:58:38;;;;;;;9.95;5.22;;;24.50;99.90;;;;;;5011951;28;20084;-78
2023/08/23 08:01:05;;;;;;;9.13;5.22;;;24.40;99.90;;;;;;4997242;28;20400;-78
2023/08/23 08:03:30;;;;;;;9.48;5.53;;;24.50;99.90;;;;;;4996106;28;20120;-79
2023/08/23 08:05:56;;;;;;;10.88;5.20;;;24.50;99.90;;;;;;5014101;28;20026;-79
2023/08/23 08:08:21;;;;;;;10.73;6.15;;;24.60;99.90;;;;;;4997236;28;20391;-81
2023/08/23 08:10:50;;;;;;;7.32;5.30;;;24.60;99.90;;;;;;4994986;28;20030;-78
2023/08/23 08:13:16;;;;;;;8.23;6.13;;;24.60;99.90;;;;;;5012710;28;20057;-79
2023/08/23 08:15:48;;;;;;;10.18;5.43;;;24.60;99.90;;;;;;5014455;28;20034;-80
2023/08/23 08:18:19;;;;;;;6.75;4.72;;;24.70;99.90;;;;;;4997027;28;20677;-79
2023/08/23 08:20:54;;;;;;;9.95;5.43;;;24.80;99.90;;;;;;5012642;28;20030;-80
2023/08/23 08:23:19;;;;;;;11.13;5.93;;;25.00;99.90;;;;;;5013291;28;20037;-78
2023/08/23 08:25:45;;;;;;;10.02;4.85;;;25.20;99.90;;;;;;4994520;28;20127;-78
2023/08/23 08:28:16;;;;;;;7.28;4.85;;;25.30;99.90;;;;;;5000179;28;20030;-79
2023/08/23 08:30:42;;;;;;;9.90;5.35;;;25.30;99.90;;;;;;5012507;28;20329;-78
2023/08/23 08:33:08;;;;;;;6.68;4.80;;;25.30;99.70;;;;;;5011747;28;20125;-78
2023/08/23 08:35:39;;;;;;;8.52;5.10;;;25.40;99.70;;;;;;5008916;28;20052;-78
2023/08/23 08:38:11;;;;;;;7.28;4.72;;;25.40;99.30;;;;;;5010381;28;20029;-78
2023/08/23 08:40:39;;;;;;;8.35;4.35;;;25.50;99.70;;;;;;5008804;28;20492;-79
2023/08/23 08:43:08;;;;;;;9.40;5.00;;;25.60;99.10;;;;;;5007796;28;20096;-80
2023/08/23 08:45:34;;;;;;;7.75;4.60;;;25.60;98.90;;;;;;5008075;28;20452;-79
2023/08/23 08:48:00;;;;;;;8.45;4.57;;;25.60;98.90;;;;;;5007976;28;20435;-78
2023/08/23 08:50:30;;;;;;;9.27;4.30;;;25.70;98.70;;;;;;5008899;28;20033;-80
2023/08/23 08:52:59;;;;;;;6.68;4.53;;;25.70;98.70;;;;;;5009549;28;20462;-78
2023/08/23 08:55:26;;;;;;;8.27;4.90;;;25.80;98.50;;;;;;5012000;28;20033;-79
2023/08/23 08:57:54;;;;;;;5.93;4.13;;;25.80;98.30;;;;;;5007308;28;20035;-80
2023/08/23 09:00:23;;;;;;;7.80;4.70;;;25.80;98.10;;;;;;5008105;28;20026;-79
2023/08/23 09:02:52;;;;;;;10.63;4.82;;;25.80;97.90;;;;;;5011208;28;20096;-80
2023/08/23 09:05:21;;;;;;;8.68;4.53;;;25.90;98.10;;;;;;4994180;28;20511;-78
2023/08/23 09:07:47;;;;;;;14.20;4.80;;;25.90;98.10;;;;;;5009095;28;20393;-78
2023/08/23 09:10:17;;;;;;;8.15;4.68;;;25.90;98.00;;;;;;4996772;28;20034;-80
2023/08/23 09:15:31;;;;;;;7.28;4.40;;;26.00;98.10;;;;;;4997949;28;20125;-79
2023/08/23 09:17:57;;;;;;;6.85;4.18;;;26.00;97.90;;;;;;5014815;28;20099;-81
2023/08/23 09:20:24;;;;;;;6.78;4.50;;;26.10;97.80;;;;;;5010635;28;20061;-80
2023/08/23 09:23:06;;;;;;;6.80;4.57;;;26.10;97.50;;;;;;5019892;28;20068;-79
2023/08/23 09:25:32;;;;;;;6.20;4.47;;;26.20;97.20;;;;;;5017841;28;20555;-79
2023/08/23 09:27:58;;;;;;;8.30;4.90;;;26.30;97.10;;;;;;5017195;28;20054;-78
2023/08/23 09:30:25;;;;;;;8.27;3.78;;;26.50;97.00;;;;;;5021431;28;20029;-79
2023/08/23 09:32:50;;;;;;;6.30;4.85;;;26.60;96.80;;;;;;5014371;28;20022;-78
2023/08/23 09:35:17;;;;;;;5.75;4.43;;;26.70;96.60;;;;;;5017921;28;20042;-79
2023/08/23 09:37:44;;;;;;;7.97;4.68;;;26.70;96.50;;;;;;5014785;28;20032;-79
2023/08/23 09:40:22;;;;;;;9.05;4.30;;;26.80;96.20;;;;;;5015814;28;20054;-79
2023/08/23 09:42:52;;;;;;;7.65;4.75;;;26.90;96.30;;;;;;5014413;28;20033;-78
2023/08/23 09:45:22;;;;;;;8.40;4.78;;;27.00;96.30;;;;;;5016111;28;20030;-78
2023/08/23 09:47:56;;;;;;;8.05;4.07;;;27.00;96.40;;;;;;5011804;28;20034;-79
2023/08/23 09:50:23;;;;;;;7.68;4.68;;;27.10;96.40;;;;;;4996397;28;20110;-78
2023/08/23 09:53:04;;;;;;;8.00;3.85;;;27.10;96.40;;;;;;5015637;28;20030;-80
2023/08/23 09:55:32;;;;;;;6.70;4.40;;;27.20;96.00;;;;;;5013669;28;20101;-78
2023/08/23 09:58:05;;;;;;;8.75;4.30;;;27.10;95.70;;;;;;5015106;28;20060;-78
2023/08/23 10:00:33;;;;;;;9.30;4.57;;;27.10;95.50;;;;;;4999018;28;20093;-78
2023/08/23 10:03:02;;;;;;;6.60;4.28;;;27.10;95.40;;;;;;5013575;28;20037;-79
2023/08/23 10:05:34;;;;;;;5.80;4.15;;;27.10;95.50;;;;;;5013736;28;20381;-79
2023/08/23 10:08:01;;;;;;;7.13;4.28;;;27.20;95.50;;;;;;5008844;28;20030;-78
2023/08/23 10:10:30;;;;;;;7.75;4.25;;;27.20;95.70;;;;;;5016094;28;20033;-78
2023/08/23 10:13:04;;;;;;;8.90;3.88;;;27.20;95.40;;;;;;5010650;28;20018;-78
2023/08/23 10:15:35;;;;;;;6.72;3.53;;;27.30;95.00;;;;;;5008197;28;20030;-78
2023/08/23 10:18:04;;;;;;;5.13;3.85;;;27.40;94.90;;;;;;5006792;28;20026;-78
2023/08/23 10:20:35;;;;;;;9.23;4.10;;;27.40;94.50;;;;;;5007052;28;20022;-78
2023/08/23 10:23:15;;;;;;;7.47;3.70;;;27.40;94.40;;;;;;5008747;28;20176;-77
2023/08/23 10:25:53;;;;;;;7.82;4.07;;;27.30;94.50;;;;;;5010690;28;20025;-76
2023/08/23 10:28:21;;;;;;;5.55;4.32;;;27.40;94.20;;;;;;5010837;28;20083;-77
2023/08/23 10:30:50;;;;;;;5.03;3.80;;;27.40;94.20;;;;;;4986901;28;20112;-78
2023/08/23 10:33:16;;;;;;;5.63;3.70;;;27.50;94.00;;;;;;5012163;28;20445;-78
2023/08/23 10:35:44;;;;;;;9.45;4.15;;;27.50;93.70;;;;;;5013153;28;20022;-77
2023/08/23 10:38:10;;;;;;;5.63;3.50;;;27.60;93.70;;;;;;5008107;28;20030;-77
2023/08/23 10:40:38;;;;;;;6.53;3.65;;;27.60;93.40;;;;;;4991955;28;20034;-77
2023/08/23 10:43:09;;;;;;;4.63;3.67;;;27.60;93.20;;;;;;5006270;28;20034;-77
2023/08/23 10:45:50;;;;;;;6.57;3.72;;;27.70;93.20;;;;;;5006778;28;20034;-79
2023/08/23 10:48:21;;;;;;;4.80;3.47;;;27.70;92.90;;;;;;5006546;28;20029;-77
2023/08/23 10:50:47;;;;;;;5.30;3.58;;;27.80;93.20;;;;;;5011411;28;20029;-79
2023/08/23 10:53:15;;;;;;;6.15;3.90;;;27.80;93.10;;;;;;5015455;28;20026;-77
2023/08/23 10:55:40;;;;;;;8.10;4.25;;;27.80;93.30;;;;;;5011372;28;20036;-77
2023/08/23 10:58:06;;;;;;;9.10;4.07;;;27.80;93.60;;;;;;5006535;28;20105;-78
2023/08/23 11:00:32;;;;;;;6.82;3.50;;;27.90;93.60;;;;;;4988942;28;20042;-78
2023/08/23 11:02:58;;;;;;;7.47;4.60;;;27.90;93.70;;;;;;5003678;28;20445;-79
2023/08/23 11:05:30;;;;;;;7.82;4.45;;;27.90;94.30;;;;;;5009132;28;20036;-79
2023/08/23 11:07:57;;;;;;;8.35;4.47;;;27.80;94.10;;;;;;4993597;28;20022;-77
2023/08/23 11:10:25;;;;;;;7.30;4.47;;;27.70;94.10;;;;;;5012674;28;20026;-79
2023/08/23 11:12:51;;;;;;;7.85;4.18;;;27.80;94.30;;;;;;4992148;28;20121;-78
2023/08/23 11:15:20;;;;;;;9.00;4.13;;;27.90;94.30;;;;;;5010586;28;20073;-77
2023/08/23 11:17:46;;;;;;;6.80;4.50;;;27.90;94.30;;;;;;4994965;28;20026;-77
2023/08/23 11:20:13;;;;;;;5.50;4.30;;;27.90;94.30;;;;;;5017800;28;20081;-78
2023/08/23 11:22:39;;;;;;;6.10;4.78;;;27.90;94.20;;;;;;5015811;28;20650;-82
2023/08/23 11:25:05;;;;;;;7.47;4.75;;;27.90;94.30;;;;;;5018123;28;20030;-78
2023/08/23 11:27:30;;;;;;;7.45;4.40;;;27.90;94.30;;;;;;5022179;28;20396;-79
2023/08/23 11:29:58;;;;;;;6.10;4.05;;;27.90;94.30;;;;;;5016144;28;20037;-80
2023/08/23 11:32:24;;;;;;;5.13;4.30;;;28.00;94.30;;;;;;5017231;28;20045;-78
2023/08/23 11:34:50;;;;;;;6.20;4.40;;;28.00;94.30;;;;;;5016479;28;20030;-78
2023/08/23 11:37:15;;;;;;;8.80;4.90;;;28.00;94.20;;;;;;5002038;28;20503;-79
2023/08/23 11:39:41;;;;;;;5.72;4.38;;;28.10;94.40;;;;;;5012104;28;20030;-76
2023/08/23 11:42:07;;;;;;;7.15;4.40;;;28.10;94.40;;;;;;5014787;28;20049;-78
2023/08/23 11:44:32;;;;;;;9.43;4.35;;;28.10;94.40;;;;;;4996788;28;20197;-77
2023/08/23 11:47:09;;;;;;;6.53;4.38;;;28.20;94.40;;;;;;5013715;28;20511;-77
2023/08/23 11:49:35;;;;;;;8.18;4.38;;;28.20;94.40;;;;;;5010463;28;20057;-78
2023/08/23 11:52:09;;;;;;;7.35;4.68;;;28.30;94.50;;;;;;5017934;28;20026;-78
2023/08/23 11:54:39;;;;;;;;;;;28.40;94.40;;;;;;5006037;28;20026;-78
2023/08/23 11:57:05;;;;;;;8.15;4.65;;;28.50;94.10;;;;;;5012016;28;20039;-77
2023/08/23 11:59:30;;;;;;;9.05;4.50;;;28.50;94.00;;;;;;5013558;28;20029;-77
2023/08/23 12:01:56;;;;;;;5.53;4.28;;;28.50;94.00;;;;;;5011268;28;20042;-76
2023/08/23 12:04:22;;;;;;;7.22;4.38;;;28.50;93.90;;;;;;5014262;28;20388;-77
2023/08/23 12:06:47;;;;;;;6.80;4.30;;;28.60;93.80;;;;;;5016425;28;20033;-78
2023/08/23 12:09:15;;;;;;;7.25;3.80;;;28.60;93.70;;;;;;5000553;28;20025;-79
2023/08/23 12:11:41;;;;;;;7.20;4.80;;;28.60;93.60;;;;;;4999834;28;20393;-77
2023/08/23 12:14:06;;;;;;;12.27;4.80;;;28.60;93.60;;;;;;4997743;28;20041;-79
2023/08/23 12:16:32;;;;;;;8.60;4.28;;;28.60;93.60;;;;;;5013120;28;20026;-77
2023/08/23 12:18:58;;;;;;;5.38;3.92;;;28.60;93.60;;;;;;4995720;28;20432;-80
2023/08/23 12:21:24;;;;;;;5.47;4.15;;;28.70;93.20;;;;;;5013873;28;20029;-79
2023/08/23 12:23:50;;;;;;;6.15;3.58;;;28.70;93.10;;;;;;5000330;28;20080;-78
2023/08/23 12:26:20;;;;;;;7.45;3.70;;;28.80;92.90;;;;;;4995680;28;20489;-79
2023/08/23 12:28:45;;;;;;;5.18;3.72;;;28.80;92.90;;;;;;5009922;28;20030;-78
2023/08/23 12:31:13;;;;;;;7.97;3.88;;;28.90;92.80;;;;;;4993411;28;20025;-78
2023/08/23 12:33:39;;;;;;;10.63;4.28;;;29.00;92.50;;;;;;4989605;28;20134;-78
2023/08/23 12:36:08;;;;;;;8.27;4.63;;;29.00;92.40;;;;;;5012029;28;20037;-78
2023/08/23 12:38:33;;;;;;;8.85;4.10;;;29.10;92.40;;;;;;5005659;28;20045;-80
2023/08/23 12:41:02;;;;;;;6.50;4.32;;;29.10;92.30;;;;;;4991264;28;20030;-78
2023/08/23 12:43:31;;;;;;;7.00;3.97;;;29.10;92.10;;;;;;5018100;28;20038;-80
2023/08/23 12:45:56;;;;;;;5.38;3.90;;;29.00;92.10;;;;;;5016589;28;20018;-81
2023/08/23 12:48:31;;;;;;;9.05;3.92;;;29.00;92.20;;;;;;5015178;28;20412;-82
2023/08/23 12:51:00;;;;;;;6.70;4.00;;;29.00;92.00;;;;;;4995790;28;20048;-79
2023/08/23 12:53:25;;;;;;;5.65;3.90;;;29.00;92.00;;;;;;5015992;28;20030;-77